sensor_id;sensor_type;location;lat;lon;timestamp;pressure;altitude;pressure_sealevel;temperature;humidity
7532;BME280;3807;49.030;8.714;2022-09-13T00:00:50;98861.25;;;21.71;50.72
7532;BME280;3807;49.030;8.714;2022-09-13T00:03:16;98857.56;;;21.63;50.95
7532;BME280;3807;49.030;8.714;2022-09-13T00:05:42;98864.94;;;21.58;51.00
7532;BME280;3807;49.030;8.714;2022-09-13T00:08:07;98864.09;;;21.58;51.14
7532;BME280;3807;49.030;8.714;2022-09-13T00:10:34;98862.97;;;21.51;51.12
7532;BME280;3807;49.030;8.714;2022-09-13T00:13:00;98866.81;;;21.56;51.21
7532;BME280;3807;49.030;8.714;2022-09-13T00:15:26;98872.53;;;21.50;51.18
7532;BME280;3807;49.030;8.714;2022-09-13T00:17:52;98860.38;;;21.41;51.40
7532;BME280;3807;49.030;8.714;2022-09-13T00:20:17;98862.31;;;21.49;51.30
7532;BME280;3807;49.030;8.714;2022-09-13T00:22:43;98857.66;;;21.43;51.35
7532;BME280;3807;49.030;8.714;2022-09-13T00:25:08;98850.13;;;21.39;51.41
7532;BME280;3807;49.030;8.714;2022-09-13T00:27:35;98850.22;;;21.28;51.70
7532;BME280;3807;49.030;8.714;2022-09-13T00:30:04;98846.34;;;21.23;51.71
7532;BME280;3807;49.030;8.714;2022-09-13T00:32:30;98833.56;;;21.21;51.88
7532;BME280;3807;49.030;8.714;2022-09-13T00:34:56;98820.56;;;21.11;52.12
7532;BME280;3807;49.030;8.714;2022-09-13T00:37:22;98816.22;;;21.22;51.77
7532;BME280;3807;49.030;8.714;2022-09-13T00:39:48;98824.22;;;21.09;52.19
7532;BME280;3807;49.030;8.714;2022-09-13T00:42:13;98815.34;;;21.02;52.28
7532;BME280;3807;49.030;8.714;2022-09-13T00:44:57;98822.84;;;21.05;52.17
7532;BME280;3807;49.030;8.714;2022-09-13T00:47:41;98813.97;;;20.98;52.33
7532;BME280;3807;49.030;8.714;2022-09-13T00:53:06;98821.88;;;20.96;52.16
7532;BME280;3807;49.030;8.714;2022-09-13T00:55:43;98821.31;;;20.92;52.41
7532;BME280;3807;49.030;8.714;2022-09-13T00:58:35;98831.91;;;20.89;52.29
7532;BME280;3807;49.030;8.714;2022-09-13T01:01:03;98836.94;;;20.91;52.33
7532;BME280;3807;49.030;8.714;2022-09-13T01:03:32;98843.59;;;20.84;52.40
7532;BME280;3807;49.030;8.714;2022-09-13T01:06:04;98840.84;;;20.76;52.69
7532;BME280;3807;49.030;8.714;2022-09-13T01:08:31;98839.06;;;20.76;52.56
7532;BME280;3807;49.030;8.714;2022-09-13T01:10:59;98840.03;;;20.75;52.72
7532;BME280;3807;49.030;8.714;2022-09-13T01:13:29;98832.63;;;20.70;52.84
7532;BME280;3807;49.030;8.714;2022-09-13T01:15:56;98837.69;;;20.72;52.68
7532;BME280;3807;49.030;8.714;2022-09-13T01:18:22;98832.75;;;20.69;52.79
7532;BME280;3807;49.030;8.714;2022-09-13T01:26:33;98835.41;;;20.58;52.98
7532;BME280;3807;49.030;8.714;2022-09-13T01:29:39;98830.84;;;20.50;53.24
7532;BME280;3807;49.030;8.714;2022-09-13T01:37:28;98837.09;;;20.48;53.12
7532;BME280;3807;49.030;8.714;2022-09-13T01:40:19;98835.94;;;20.40;53.40
7532;BME280;3807;49.030;8.714;2022-09-13T01:43:17;98836.31;;;20.36;53.49
7532;BME280;3807;49.030;8.714;2022-09-13T01:45:59;98835.50;;;20.35;53.45
7532;BME280;3807;49.030;8.714;2022-09-13T01:48:31;98842.00;;;20.30;53.53
7532;BME280;3807;49.030;8.714;2022-09-13T01:51:04;98850.56;;;20.30;53.59
7532;BME280;3807;49.030;8.714;2022-09-13T01:56:32;98850.50;;;20.20;53.77
7532;BME280;3807;49.030;8.714;2022-09-13T01:59:19;98843.44;;;20.22;53.57
7532;BME280;3807;49.030;8.714;2022-09-13T02:01:54;98848.53;;;20.13;53.83
7532;BME280;3807;49.030;8.714;2022-09-13T02:04:24;98860.66;;;20.12;53.67
7532;BME280;3807;49.030;8.714;2022-09-13T02:07:36;98855.56;;;20.11;53.75
7532;BME280;3807;49.030;8.714;2022-09-13T02:09:46;98850.22;;;20.03;54.00
7532;BME280;3807;49.030;8.714;2022-09-13T02:12:19;98856.06;;;20.05;53.82
7532;BME280;3807;49.030;8.714;2022-09-13T02:14:53;98850.22;;;20.03;54.00
7532;BME280;3807;49.030;8.714;2022-09-13T02:17:23;98852.31;;;19.97;53.92
7532;BME280;3807;49.030;8.714;2022-09-13T02:19:54;98858.69;;;19.93;54.17
7532;BME280;3807;49.030;8.714;2022-09-13T02:22:26;98853.53;;;19.93;53.95
7532;BME280;3807;49.030;8.714;2022-09-13T02:24:56;98853.53;;;19.93;54.02
7532;BME280;3807;49.030;8.714;2022-09-13T02:27:29;98857.44;;;19.88;54.11
7532;BME280;3807;49.030;8.714;2022-09-13T02:30:01;98859.06;;;19.89;54.25
7532;BME280;3807;49.030;8.714;2022-09-13T02:32:35;98861.88;;;19.86;54.34
7532;BME280;3807;49.030;8.714;2022-09-13T02:37:36;98860.16;;;19.75;54.43
7532;BME280;3807;49.030;8.714;2022-09-13T02:40:07;98849.25;;;19.71;54.49
7532;BME280;3807;49.030;8.714;2022-09-13T02:42:41;98849.47;;;19.68;54.57
7532;BME280;3807;49.030;8.714;2022-09-13T02:45:08;98845.13;;;19.69;54.52
7532;BME280;3807;49.030;8.714;2022-09-13T02:53:49;98835.25;;;19.63;54.31
7532;BME280;3807;49.030;8.714;2022-09-13T02:56:49;98829.50;;;19.59;54.69
7532;BME280;3807;49.030;8.714;2022-09-13T02:59:13;98821.75;;;19.59;54.62
7532;BME280;3807;49.030;8.714;2022-09-13T03:01:40;98827.03;;;19.58;54.66
7532;BME280;3807;49.030;8.714;2022-09-13T03:04:06;98828.47;;;19.50;54.75
7532;BME280;3807;49.030;8.714;2022-09-13T03:06:31;98835.63;;;19.47;54.90
7532;BME280;3807;49.030;8.714;2022-09-13T03:09:00;98830.31;;;19.48;54.87
7532;BME280;3807;49.030;8.714;2022-09-13T03:14:43;98857.47;;;19.43;54.87
7532;BME280;3807;49.030;8.714;2022-09-13T03:20:14;98858.16;;;19.34;55.17
7532;BME280;3807;49.030;8.714;2022-09-13T03:30:12;98839.75;;;19.27;55.18
7532;BME280;3807;49.030;8.714;2022-09-13T03:35:56;98821.91;;;19.24;55.06
7532;BME280;3807;49.030;8.714;2022-09-13T03:38:32;98826.84;;;19.16;55.15
7532;BME280;3807;49.030;8.714;2022-09-13T03:41:08;98830.47;;;19.13;55.23
7532;BME280;3807;49.030;8.714;2022-09-13T03:43:42;98816.53;;;19.16;55.28
7532;BME280;3807;49.030;8.714;2022-09-13T03:46:31;98808.56;;;19.08;55.19
7532;BME280;3807;49.030;8.714;2022-09-13T03:49:01;98810.19;;;19.09;55.42
7532;BME280;3807;49.030;8.714;2022-09-13T03:51:29;98819.47;;;19.11;55.29
7532;BME280;3807;49.030;8.714;2022-09-13T03:53:59;98818.63;;;19.11;55.07
7532;BME280;3807;49.030;8.714;2022-09-13T03:56:26;98806.06;;;19.06;55.19
7532;BME280;3807;49.030;8.714;2022-09-13T03:58:52;98807.13;;;19.03;55.41
7532;BME280;3807;49.030;8.714;2022-09-13T04:01:19;98799.16;;;19.07;55.27
7532;BME280;3807;49.030;8.714;2022-09-13T04:03:46;98799.41;;;19.15;54.96
7532;BME280;3807;49.030;8.714;2022-09-13T04:06:11;98803.38;;;19.19;54.66
7532;BME280;3807;49.030;8.714;2022-09-13T04:08:37;98812.19;;;19.05;55.07
7532;BME280;3807;49.030;8.714;2022-09-13T04:11:02;98815.34;;;19.09;54.82
7532;BME280;3807;49.030;8.714;2022-09-13T04:13:27;98822.59;;;18.92;55.10
7532;BME280;3807;49.030;8.714;2022-09-13T04:15:53;98834.34;;;18.85;55.50
7532;BME280;3807;49.030;8.714;2022-09-13T04:18:19;98837.31;;;19.14;54.66
7532;BME280;3807;49.030;8.714;2022-09-13T04:20:55;98826.63;;;19.19;54.30
7532;BME280;3807;49.030;8.714;2022-09-13T04:23:21;98838.56;;;19.20;54.50
7532;BME280;3807;49.030;8.714;2022-09-13T04:25:47;98837.19;;;18.93;55.29
7532;BME280;3807;49.030;8.714;2022-09-13T04:28:12;98840.81;;;19.02;55.05
7532;BME280;3807;49.030;8.714;2022-09-13T04:30:38;98832.25;;;19.01;55.01
7532;BME280;3807;49.030;8.714;2022-09-13T04:33:03;98844.78;;;19.06;54.71
7532;BME280;3807;49.030;8.714;2022-09-13T04:35:28;98836.91;;;18.96;54.75
7532;BME280;3807;49.030;8.714;2022-09-13T04:37:55;98829.41;;;18.82;55.26
7532;BME280;3807;49.030;8.714;2022-09-13T04:40:22;98839.25;;;18.77;55.41
7532;BME280;3807;49.030;8.714;2022-09-13T04:42:48;98843.25;;;18.81;55.44
7532;BME280;3807;49.030;8.714;2022-09-13T04:45:13;98842.31;;;18.82;55.29
7532;BME280;3807;49.030;8.714;2022-09-13T04:47:38;98846.59;;;18.70;55.58
7532;BME280;3807;49.030;8.714;2022-09-13T04:50:04;98847.53;;;18.69;55.27
7532;BME280;3807;49.030;8.714;2022-09-13T04:52:31;98839.59;;;18.72;55.54
7532;BME280;3807;49.030;8.714;2022-09-13T04:54:57;98839.22;;;18.66;55.66
7532;BME280;3807;49.030;8.714;2022-09-13T04:57:26;98836.19;;;18.72;55.54
7532;BME280;3807;49.030;8.714;2022-09-13T04:59:51;98848.81;;;18.64;55.01
7532;BME280;3807;49.030;8.714;2022-09-13T05:02:16;98851.16;;;18.67;55.62
7532;BME280;3807;49.030;8.714;2022-09-13T05:04:42;98847.75;;;18.66;55.81
7532;BME280;3807;49.030;8.714;2022-09-13T05:07:07;98849.09;;;18.72;55.35
7532;BME280;3807;49.030;8.714;2022-09-13T05:09:32;98854.50;;;18.80;54.70
7532;BME280;3807;49.030;8.714;2022-09-13T05:11:58;98850.00;;;18.71;54.95
7532;BME280;3807;49.030;8.714;2022-09-13T05:14:24;98860.31;;;18.71;55.45
7532;BME280;3807;49.030;8.714;2022-09-13T05:16:49;98870.00;;;18.80;55.26
7532;BME280;3807;49.030;8.714;2022-09-13T05:19:15;98863.66;;;18.84;54.90
7532;BME280;3807;49.030;8.714;2022-09-13T05:21:40;98852.03;;;18.78;54.58
7532;BME280;3807;49.030;8.714;2022-09-13T05:24:05;98855.09;;;18.84;54.73
7532;BME280;3807;49.030;8.714;2022-09-13T05:26:31;98857.37;;;18.64;54.80
7532;BME280;3807;49.030;8.714;2022-09-13T05:28:57;98874.00;;;18.60;55.70
7532;BME280;3807;49.030;8.714;2022-09-13T05:31:25;98870.31;;;18.75;55.22
7532;BME280;3807;49.030;8.714;2022-09-13T05:33:55;98866.88;;;18.64;55.28
7532;BME280;3807;49.030;8.714;2022-09-13T05:36:20;98874.88;;;18.72;54.95
7532;BME280;3807;49.030;8.714;2022-09-13T05:38:46;98873.66;;;18.65;55.34
7532;BME280;3807;49.030;8.714;2022-09-13T05:41:11;98864.28;;;18.64;55.17
7532;BME280;3807;49.030;8.714;2022-09-13T05:43:36;98864.47;;;18.49;55.67
7532;BME280;3807;49.030;8.714;2022-09-13T05:46:08;98865.53;;;18.58;55.86
7532;BME280;3807;49.030;8.714;2022-09-13T05:48:34;98875.06;;;18.69;55.57
7532;BME280;3807;49.030;8.714;2022-09-13T05:53:30;98880.03;;;18.72;54.68
7532;BME280;3807;49.030;8.714;2022-09-13T05:55:55;98880.69;;;18.63;55.35
7532;BME280;3807;49.030;8.714;2022-09-13T05:58:21;98886.97;;;18.71;54.78
7532;BME280;3807;49.030;8.714;2022-09-13T06:00:55;98895.00;;;18.67;54.37
7532;BME280;3807;49.030;8.714;2022-09-13T06:03:21;98893.38;;;18.66;54.74
7532;BME280;3807;49.030;8.714;2022-09-13T06:05:46;98887.31;;;18.78;54.94
7532;BME280;3807;49.030;8.714;2022-09-13T06:08:12;98900.62;;;18.61;55.51
7532;BME280;3807;49.030;8.714;2022-09-13T06:10:37;98904.50;;;18.66;55.30
7532;BME280;3807;49.030;8.714;2022-09-13T06:13:02;98908.59;;;18.69;55.15
7532;BME280;3807;49.030;8.714;2022-09-13T06:15:28;98899.66;;;18.62;55.29
7532;BME280;3807;49.030;8.714;2022-09-13T06:17:53;98895.28;;;18.75;55.40
7532;BME280;3807;49.030;8.714;2022-09-13T06:20:18;98887.56;;;18.75;55.35
7532;BME280;3807;49.030;8.714;2022-09-13T06:22:45;98884.31;;;18.60;55.18
7532;BME280;3807;49.030;8.714;2022-09-13T06:25:11;98879.00;;;18.50;56.04
7532;BME280;3807;49.030;8.714;2022-09-13T06:27:37;98877.78;;;18.67;55.82
7532;BME280;3807;49.030;8.714;2022-09-13T06:30:02;98868.19;;;18.69;55.70
7532;BME280;3807;49.030;8.714;2022-09-13T06:32:28;98879.81;;;18.75;55.62
7532;BME280;3807;49.030;8.714;2022-09-13T06:34:53;98872.63;;;18.67;55.75
7532;BME280;3807;49.030;8.714;2022-09-13T06:37:18;98868.00;;;18.72;55.83
7532;BME280;3807;49.030;8.714;2022-09-13T06:39:44;98865.75;;;18.79;55.51
7532;BME280;3807;49.030;8.714;2022-09-13T06:42:09;98870.31;;;18.75;55.44
7532;BME280;3807;49.030;8.714;2022-09-13T06:44:34;98869.91;;;18.69;55.95
7532;BME280;3807;49.030;8.714;2022-09-13T06:47:00;98866.81;;;18.76;55.74
7532;BME280;3807;49.030;8.714;2022-09-13T06:49:25;98862.69;;;18.74;56.01
7532;BME280;3807;49.030;8.714;2022-09-13T06:51:50;98852.50;;;18.72;56.16
7532;BME280;3807;49.030;8.714;2022-09-13T06:54:16;98854.25;;;18.72;56.28
7532;BME280;3807;49.030;8.714;2022-09-13T06:56:41;98854.25;;;18.72;56.04
7532;BME280;3807;49.030;8.714;2022-09-13T06:59:09;98862.81;;;18.72;56.21
7532;BME280;3807;49.030;8.714;2022-09-13T07:01:38;98850.84;;;18.71;56.26
7532;BME280;3807;49.030;8.714;2022-09-13T07:04:24;98847.63;;;18.68;56.38
7532;BME280;3807;49.030;8.714;2022-09-13T07:06:50;98856.53;;;18.64;56.94
7532;BME280;3807;49.030;8.714;2022-09-13T07:09:18;98853.84;;;18.65;56.50
7532;BME280;3807;49.030;8.714;2022-09-13T07:11:44;98842.84;;;18.63;56.44
7532;BME280;3807;49.030;8.714;2022-09-13T07:14:19;98852.34;;;18.63;56.62
7532;BME280;3807;49.030;8.714;2022-09-13T07:16:46;98849.38;;;18.56;56.38
7532;BME280;3807;49.030;8.714;2022-09-13T07:19:14;98852.78;;;18.56;56.51
7532;BME280;3807;49.030;8.714;2022-09-13T07:21:40;98848.34;;;18.59;56.87
7532;BME280;3807;49.030;8.714;2022-09-13T07:24:06;98843.66;;;18.64;56.58
7532;BME280;3807;49.030;8.714;2022-09-13T07:26:32;98844.06;;;18.82;56.46
7532;BME280;3807;49.030;8.714;2022-09-13T07:28:59;98844.19;;;18.80;56.27
7532;BME280;3807;49.030;8.714;2022-09-13T07:31:28;98842.87;;;18.74;55.64
7532;BME280;3807;49.030;8.714;2022-09-13T07:33:58;98838.84;;;18.70;56.70
7532;BME280;3807;49.030;8.714;2022-09-13T07:36:25;98840.63;;;18.70;56.43
7532;BME280;3807;49.030;8.714;2022-09-13T07:38:51;98835.28;;;18.73;56.26
7532;BME280;3807;49.030;8.714;2022-09-13T07:41:18;98834.78;;;18.79;56.04
7532;BME280;3807;49.030;8.714;2022-09-13T07:43:45;98824.12;;;18.72;55.91
7532;BME280;3807;49.030;8.714;2022-09-13T07:46:13;98825.38;;;18.67;56.37
7532;BME280;3807;49.030;8.714;2022-09-13T07:48:40;98833.78;;;18.69;56.94
7532;BME280;3807;49.030;8.714;2022-09-13T07:51:17;98832.00;;;18.93;55.65
7532;BME280;3807;49.030;8.714;2022-09-13T07:53:46;98834.69;;;18.92;55.83
7532;BME280;3807;49.030;8.714;2022-09-13T07:56:14;98828.81;;;18.90;56.13
7532;BME280;3807;49.030;8.714;2022-09-13T07:58:41;98834.69;;;18.80;55.87
7532;BME280;3807;49.030;8.714;2022-09-13T08:03:38;98833.16;;;18.78;56.16
7532;BME280;3807;49.030;8.714;2022-09-13T08:06:04;98835.28;;;18.95;55.77
7532;BME280;3807;49.030;8.714;2022-09-13T08:08:31;98839.16;;;19.01;57.46
7532;BME280;3807;49.030;8.714;2022-09-13T08:10:57;98835.50;;;19.03;58.49
7532;BME280;3807;49.030;8.714;2022-09-13T08:13:23;98830.84;;;19.09;56.15
7532;BME280;3807;49.030;8.714;2022-09-13T08:15:49;98833.78;;;19.04;55.74
7532;BME280;3807;49.030;8.714;2022-09-13T08:18:16;98833.66;;;18.94;55.28
7532;BME280;3807;49.030;8.714;2022-09-13T08:20:41;98826.84;;;18.93;55.67
7532;BME280;3807;49.030;8.714;2022-09-13T08:23:08;98829.75;;;19.00;55.56
7532;BME280;3807;49.030;8.714;2022-09-13T08:25:35;98832.25;;;19.13;55.30
7532;BME280;3807;49.030;8.714;2022-09-13T08:28:04;98836.09;;;19.07;55.71
7532;BME280;3807;49.030;8.714;2022-09-13T08:30:30;98839.97;;;19.13;55.20
7532;BME280;3807;49.030;8.714;2022-09-13T08:33:00;98843.25;;;19.03;56.71
7532;BME280;3807;49.030;8.714;2022-09-13T08:35:27;98836.59;;;19.12;55.57
7532;BME280;3807;49.030;8.714;2022-09-13T08:37:53;98828.34;;;19.07;56.58
7532;BME280;3807;49.030;8.714;2022-09-13T08:40:19;98828.94;;;18.99;56.84
7532;BME280;3807;49.030;8.714;2022-09-13T08:42:48;98839.50;;;19.30;56.66
7532;BME280;3807;49.030;8.714;2022-09-13T08:45:15;98842.69;;;19.34;56.92
7532;BME280;3807;49.030;8.714;2022-09-13T08:47:57;98843.47;;;19.45;56.54
7532;BME280;3807;49.030;8.714;2022-09-13T08:50:29;98840.00;;;19.35;56.36
7532;BME280;3807;49.030;8.714;2022-09-13T08:53:21;98835.16;;;19.42;58.65
7532;BME280;3807;49.030;8.714;2022-09-13T08:56:09;98836.69;;;19.44;58.83
7532;BME280;3807;49.030;8.714;2022-09-13T09:04:38;98834.69;;;19.70;57.58
7532;BME280;3807;49.030;8.714;2022-09-13T09:09:48;98827.97;;;19.79;57.51
7532;BME280;3807;49.030;8.714;2022-09-13T09:15:00;98831.53;;;19.99;57.04
7532;BME280;3807;49.030;8.714;2022-09-13T09:17:32;98841.59;;;20.13;56.65
7532;BME280;3807;49.030;8.714;2022-09-13T09:20:22;98845.19;;;20.22;56.54
7532;BME280;3807;49.030;8.714;2022-09-13T09:22:50;98841.44;;;20.15;57.17
7532;BME280;3807;49.030;8.714;2022-09-13T09:25:16;98840.63;;;20.14;57.32
7532;BME280;3807;49.030;8.714;2022-09-13T09:27:42;98832.34;;;20.32;57.06
7532;BME280;3807;49.030;8.714;2022-09-13T09:30:11;98834.50;;;20.27;57.44
7532;BME280;3807;49.030;8.714;2022-09-13T09:38:06;98842.78;;;20.62;56.97
7532;BME280;3807;49.030;8.714;2022-09-13T09:40:36;98849.34;;;20.66;56.89
7532;BME280;3807;49.030;8.714;2022-09-13T09:43:13;98842.06;;;20.81;56.25
7532;BME280;3807;49.030;8.714;2022-09-13T09:45:42;98846.06;;;20.85;56.26
7532;BME280;3807;49.030;8.714;2022-09-13T09:48:14;98858.78;;;20.98;56.04
7532;BME280;3807;49.030;8.714;2022-09-13T09:50:46;98858.72;;;20.88;56.30
7532;BME280;3807;49.030;8.714;2022-09-13T09:55:48;98851.41;;;21.24;55.16
7532;BME280;3807;49.030;8.714;2022-09-13T09:58:35;98847.63;;;21.28;55.15
7532;BME280;3807;49.030;8.714;2022-09-13T10:01:01;98842.91;;;21.43;55.04
7532;BME280;3807;49.030;8.714;2022-09-13T10:03:29;98838.16;;;21.48;55.03
7532;BME280;3807;49.030;8.714;2022-09-13T10:06:11;98833.78;;;21.39;55.12
7532;BME280;3807;49.030;8.714;2022-09-13T10:08:40;98840.91;;;21.56;55.15
7532;BME280;3807;49.030;8.714;2022-09-13T10:11:06;98835.75;;;21.66;54.39
7532;BME280;3807;49.030;8.714;2022-09-13T10:13:33;98840.78;;;21.68;54.56
7532;BME280;3807;49.030;8.714;2022-09-13T10:18:27;98837.13;;;21.89;54.20
7532;BME280;3807;49.030;8.714;2022-09-13T10:23:45;98837.56;;;22.14;53.67
7532;BME280;3807;49.030;8.714;2022-09-13T10:26:22;98837.97;;;22.09;53.80
7532;BME280;3807;49.030;8.714;2022-09-13T10:29:12;98840.72;;;22.27;53.52
7532;BME280;3807;49.030;8.714;2022-09-13T10:31:42;98827.63;;;22.39;53.36
7532;BME280;3807;49.030;8.714;2022-09-13T10:34:22;98831.97;;;22.48;53.14
7532;BME280;3807;49.030;8.714;2022-09-13T10:36:56;98824.44;;;22.54;53.07
7532;BME280;3807;49.030;8.714;2022-09-13T10:39:24;98822.09;;;22.71;52.65
7532;BME280;3807;49.030;8.714;2022-09-13T10:41:53;98825.34;;;22.82;52.29
7532;BME280;3807;49.030;8.714;2022-09-13T10:44:40;98814.50;;;22.97;51.80
7532;BME280;3807;49.030;8.714;2022-09-13T10:49:55;98828.19;;;22.99;51.56
7532;BME280;3807;49.030;8.714;2022-09-13T10:52:33;98834.34;;;22.98;51.45
7532;BME280;3807;49.030;8.714;2022-09-13T10:55:23;98837.53;;;23.19;51.04
7532;BME280;3807;49.030;8.714;2022-09-13T11:03:54;98843.84;;;23.44;50.64
7532;BME280;3807;49.030;8.714;2022-09-13T11:06:33;98842.25;;;23.34;50.64
7532;BME280;3807;49.030;8.714;2022-09-13T11:09:32;98846.88;;;23.40;50.36
7532;BME280;3807;49.030;8.714;2022-09-13T11:12:12;98838.88;;;23.51;50.07
7532;BME280;3807;49.030;8.714;2022-09-13T11:15:09;98841.97;;;23.64;49.80
7532;BME280;3807;49.030;8.714;2022-09-13T11:20:46;98846.69;;;23.79;49.53
7532;BME280;3807;49.030;8.714;2022-09-13T11:28:25;98835.03;;;24.00;49.28
7532;BME280;3807;49.030;8.714;2022-09-13T11:31:07;98829.28;;;24.15;49.10
7532;BME280;3807;49.030;8.714;2022-09-13T11:39:30;98826.00;;;24.31;49.42
7532;BME280;3807;49.030;8.714;2022-09-13T11:44:43;98826.81;;;24.49;49.49
7532;BME280;3807;49.030;8.714;2022-09-13T11:55:24;98822.34;;;24.59;49.35
7532;BME280;3807;49.030;8.714;2022-09-13T11:57:52;98815.00;;;24.89;48.04
7532;BME280;3807;49.030;8.714;2022-09-13T12:05:40;98796.28;;;25.11;48.16
7532;BME280;3807;49.030;8.714;2022-09-13T12:10:53;98779.84;;;25.27;47.73
7532;BME280;3807;49.030;8.714;2022-09-13T12:13:30;98775.13;;;25.31;47.09
7532;BME280;3807;49.030;8.714;2022-09-13T12:16:00;98766.87;;;25.35;47.33
7532;BME280;3807;49.030;8.714;2022-09-13T12:18:41;98771.41;;;25.41;47.60
7532;BME280;3807;49.030;8.714;2022-09-13T12:21:14;98758.91;;;25.61;47.47
7532;BME280;3807;49.030;8.714;2022-09-13T12:23:54;98756.47;;;25.76;46.65
7532;BME280;3807;49.030;8.714;2022-09-13T12:26:24;98750.63;;;25.90;46.88
7532;BME280;3807;49.030;8.714;2022-09-13T12:28:54;98745.59;;;25.89;46.64
7532;BME280;3807;49.030;8.714;2022-09-13T12:31:25;98732.19;;;25.67;48.17
7532;BME280;3807;49.030;8.714;2022-09-13T12:33:51;98736.63;;;25.83;46.87
7532;BME280;3807;49.030;8.714;2022-09-13T12:41:55;98739.72;;;25.95;47.24
7532;BME280;3807;49.030;8.714;2022-09-13T12:55:37;98722.84;;;26.55;45.27
7532;BME280;3807;49.030;8.714;2022-09-13T13:03:28;98720.84;;;26.65;45.25
7532;BME280;3807;49.030;8.714;2022-09-13T13:06:48;98713.78;;;26.74;44.49
7532;BME280;3807;49.030;8.714;2022-09-13T13:08:56;98714.44;;;26.76;44.71
7532;BME280;3807;49.030;8.714;2022-09-13T13:11:27;98713.66;;;27.06;44.25
7532;BME280;3807;49.030;8.714;2022-09-13T13:14:00;98707.09;;;27.11;44.57
7532;BME280;3807;49.030;8.714;2022-09-13T13:16:35;98701.84;;;27.19;44.14
7532;BME280;3807;49.030;8.714;2022-09-13T13:19:32;98704.09;;;27.22;44.31
7532;BME280;3807;49.030;8.714;2022-09-13T13:39:08;98683.47;;;27.73;43.99
7532;BME280;3807;49.030;8.714;2022-09-13T13:46:39;98680.47;;;27.99;42.55
7532;BME280;3807;49.030;8.714;2022-09-13T14:00:29;98682.50;;;28.41;42.70
7532;BME280;3807;49.030;8.714;2022-09-13T14:13:00;98656.38;;;28.63;39.79
7532;BME280;3807;49.030;8.714;2022-09-13T14:15:49;98655.19;;;28.80;40.39
7532;BME280;3807;49.030;8.714;2022-09-13T14:21:27;98650.34;;;28.99;40.71
7532;BME280;3807;49.030;8.714;2022-09-13T14:26:42;98645.34;;;29.04;40.53
7532;BME280;3807;49.030;8.714;2022-09-13T14:29:08;98638.31;;;28.89;41.83
7532;BME280;3807;49.030;8.714;2022-09-13T14:31:34;98639.03;;;28.98;40.97
7532;BME280;3807;49.030;8.714;2022-09-13T14:34:00;98639.16;;;29.11;40.72
7532;BME280;3807;49.030;8.714;2022-09-13T14:36:26;98631.50;;;29.10;41.06
7532;BME280;3807;49.030;8.714;2022-09-13T14:38:56;98624.78;;;29.22;40.14
7532;BME280;3807;49.030;8.714;2022-09-13T14:41:30;98624.38;;;29.25;40.28
7532;BME280;3807;49.030;8.714;2022-09-13T14:44:13;98619.19;;;29.32;39.42
7532;BME280;3807;49.030;8.714;2022-09-13T14:46:42;98616.13;;;29.28;40.28
7532;BME280;3807;49.030;8.714;2022-09-13T14:49:16;98612.13;;;29.32;40.56
7532;BME280;3807;49.030;8.714;2022-09-13T14:51:48;98612.75;;;29.34;40.49
7532;BME280;3807;49.030;8.714;2022-09-13T14:54:20;98604.53;;;29.16;40.35
7532;BME280;3807;49.030;8.714;2022-09-13T14:56:56;98599.97;;;29.25;41.20
7532;BME280;3807;49.030;8.714;2022-09-13T14:59:31;98598.56;;;29.50;39.58
7532;BME280;3807;49.030;8.714;2022-09-13T15:02:05;98595.59;;;29.32;40.41
7532;BME280;3807;49.030;8.714;2022-09-13T15:04:30;98592.69;;;29.48;39.61
7532;BME280;3807;49.030;8.714;2022-09-13T15:07:19;98588.41;;;29.40;40.04
7532;BME280;3807;49.030;8.714;2022-09-13T15:09:45;98580.16;;;29.43;39.91
7532;BME280;3807;49.030;8.714;2022-09-13T15:12:25;98576.00;;;29.56;39.14
7532;BME280;3807;49.030;8.714;2022-09-13T15:18:00;98570.31;;;29.52;39.86
7532;BME280;3807;49.030;8.714;2022-09-13T15:20:29;98554.81;;;29.57;39.63
7532;BME280;3807;49.030;8.714;2022-09-13T15:22:55;98545.22;;;29.64;39.11
7532;BME280;3807;49.030;8.714;2022-09-13T15:25:26;98543.00;;;29.68;38.59
7532;BME280;3807;49.030;8.714;2022-09-13T15:27:53;98541.22;;;29.75;38.95
7532;BME280;3807;49.030;8.714;2022-09-13T15:30:31;98536.94;;;29.67;37.99
7532;BME280;3807;49.030;8.714;2022-09-13T15:33:13;98539.75;;;29.66;39.16
7532;BME280;3807;49.030;8.714;2022-09-13T15:35:45;98529.69;;;29.70;38.13
7532;BME280;3807;49.030;8.714;2022-09-13T15:40:42;98523.00;;;29.67;39.15
7532;BME280;3807;49.030;8.714;2022-09-13T15:43:08;98518.38;;;29.69;34.17
7532;BME280;3807;49.030;8.714;2022-09-13T15:45:33;98522.00;;;29.68;38.56
7532;BME280;3807;49.030;8.714;2022-09-13T15:47:58;98521.22;;;29.74;34.91
7532;BME280;3807;49.030;8.714;2022-09-13T15:50:27;98519.44;;;29.75;35.92
7532;BME280;3807;49.030;8.714;2022-09-13T15:52:56;98507.66;;;29.64;39.06
7532;BME280;3807;49.030;8.714;2022-09-13T15:55:23;98513.53;;;29.73;38.35
7532;BME280;3807;49.030;8.714;2022-09-13T15:57:49;98506.56;;;29.58;38.43
7532;BME280;3807;49.030;8.714;2022-09-13T16:00:25;98514.44;;;29.58;38.91
7532;BME280;3807;49.030;8.714;2022-09-13T16:02:51;98504.41;;;29.62;37.54
7532;BME280;3807;49.030;8.714;2022-09-13T16:05:17;98509.19;;;29.58;38.04
7532;BME280;3807;49.030;8.714;2022-09-13T16:07:43;98502.00;;;29.60;38.21
7532;BME280;3807;49.030;8.714;2022-09-13T16:10:17;98506.03;;;29.63;39.09
7532;BME280;3807;49.030;8.714;2022-09-13T16:12:43;98506.56;;;29.58;38.38
7532;BME280;3807;49.030;8.714;2022-09-13T16:15:09;98503.91;;;29.52;38.18
7532;BME280;3807;49.030;8.714;2022-09-13T16:17:34;98497.84;;;29.51;36.50
7532;BME280;3807;49.030;8.714;2022-09-13T16:20:00;98506.16;;;29.55;39.09
7532;BME280;3807;49.030;8.714;2022-09-13T16:22:25;98502.78;;;29.61;39.42
7532;BME280;3807;49.030;8.714;2022-09-13T16:24:51;98495.62;;;29.48;39.90
7532;BME280;3807;49.030;8.714;2022-09-13T16:27:18;98496.47;;;29.55;36.80
7532;BME280;3807;49.030;8.714;2022-09-13T16:29:44;98487.38;;;29.51;39.81
7532;BME280;3807;49.030;8.714;2022-09-13T16:32:10;98492.78;;;29.50;38.32
7532;BME280;3807;49.030;8.714;2022-09-13T16:34:35;98496.84;;;29.52;39.92
7532;BME280;3807;49.030;8.714;2022-09-13T16:37:02;98500.09;;;29.54;38.81
7532;BME280;3807;49.030;8.714;2022-09-13T16:39:27;98505.78;;;29.58;40.04
7532;BME280;3807;49.030;8.714;2022-09-13T16:41:53;98502.78;;;29.61;36.40
7532;BME280;3807;49.030;8.714;2022-09-13T16:44:19;98502.16;;;29.59;40.10
7532;BME280;3807;49.030;8.714;2022-09-13T16:46:44;98506.97;;;29.55;40.14
7532;BME280;3807;49.030;8.714;2022-09-13T16:49:10;98504.72;;;29.52;40.29